createdAt,value
2022-08-21T00:01:39.488Z,14.75
2022-08-21T00:04:07.880Z,14.89
2022-08-21T00:06:35.496Z,14.82
2022-08-21T00:09:06.618Z,14.76
2022-08-21T00:11:36.072Z,14.75
2022-08-21T00:14:04.055Z,14.74
2022-08-21T00:16:31.234Z,14.73
2022-08-21T00:18:57.796Z,14.70
2022-08-21T00:21:26.060Z,14.77
2022-08-21T00:23:54.005Z,14.74
2022-08-21T00:26:20.614Z,14.67
2022-08-21T00:28:49.778Z,14.69
2022-08-21T00:31:16.964Z,14.73
2022-08-21T00:33:43.781Z,14.77
2022-08-21T00:36:11.566Z,14.70
2022-08-21T00:38:38.234Z,14.76
2022-08-21T00:41:36.744Z,14.82
2022-08-21T00:43:55.779Z,15.02
2022-08-21T00:46:22.614Z,14.86
2022-08-21T00:48:57.169Z,14.81
2022-08-21T00:51:49.012Z,14.72
2022-08-21T00:54:19.033Z,14.78
2022-08-21T00:56:49.615Z,14.90
2022-08-21T00:59:19.034Z,14.85
2022-08-21T01:01:46.184Z,14.70
2022-08-21T01:04:13.294Z,14.78
2022-08-21T01:06:40.391Z,14.70
2022-08-21T01:09:07.310Z,14.62
2022-08-21T01:11:33.921Z,14.74
2022-08-21T01:14:00.999Z,14.82
2022-08-21T01:16:27.962Z,14.52
2022-08-21T01:18:54.648Z,14.54
2022-08-21T01:21:27.902Z,14.39
2022-08-21T01:23:56.863Z,14.42
2022-08-21T01:26:33.694Z,14.38
2022-08-21T01:29:04.403Z,14.40
2022-08-21T01:31:32.515Z,14.16
2022-08-21T01:33:59.085Z,14.12
2022-08-21T01:36:26.479Z,14.15
2022-08-21T01:38:53.115Z,14.07
2022-08-21T01:41:19.679Z,13.98
2022-08-21T01:43:46.683Z,14.02
2022-08-21T01:46:14.122Z,14.17
2022-08-21T01:48:41.924Z,14.23
2022-08-21T01:51:08.947Z,14.01
2022-08-21T01:53:37.729Z,13.98
2022-08-21T01:56:10.310Z,13.93
2022-08-21T01:58:42.755Z,13.94
2022-08-21T02:01:10.442Z,13.99
2022-08-21T02:03:37.664Z,13.97
2022-08-21T02:06:05.357Z,14.05
2022-08-21T02:08:32.332Z,14.08
2022-08-21T02:10:58.926Z,14.10
2022-08-21T02:13:25.649Z,14.13
2022-08-21T02:15:52.185Z,13.96
2022-08-21T02:18:19.321Z,13.89
2022-08-21T02:20:49.016Z,13.99
2022-08-21T02:23:26.960Z,13.82
2022-08-21T02:26:05.503Z,13.69
2022-08-21T02:28:32.690Z,13.66
2022-08-21T02:30:59.298Z,13.73
2022-08-21T02:33:27.206Z,13.67
2022-08-21T02:35:54.707Z,13.77
2022-08-21T02:38:24.746Z,13.66
2022-08-21T02:40:53.011Z,13.79
2022-08-21T02:43:22.257Z,13.68
2022-08-21T02:45:50.114Z,13.65
2022-08-21T02:48:20.774Z,13.60
2022-08-21T02:50:52.697Z,13.58
2022-08-21T02:53:20.923Z,13.58
2022-08-21T02:55:50.649Z,13.66
2022-08-21T02:58:22.290Z,13.64
2022-08-21T03:00:49.316Z,13.49
2022-08-21T03:03:15.950Z,13.64
2022-08-21T03:05:43.955Z,13.69
2022-08-21T03:08:13.946Z,13.54
2022-08-21T03:10:43.384Z,13.55
2022-08-21T03:13:11.016Z,13.51
2022-08-21T03:15:38.532Z,13.39
2022-08-21T03:18:06.092Z,13.40
2022-08-21T03:20:33.777Z,13.43
2022-08-21T03:23:01.547Z,13.44
2022-08-21T03:25:40.521Z,13.43
2022-08-21T03:28:12.799Z,13.22
2022-08-21T03:30:41.072Z,13.30
2022-08-21T03:33:07.680Z,13.22
2022-08-21T03:35:34.264Z,13.10
2022-08-21T03:38:00.862Z,13.15
2022-08-21T03:40:27.708Z,13.10
2022-08-21T03:42:54.324Z,13.10
2022-08-21T03:45:21.952Z,13.09
2022-08-21T03:47:57.563Z,13.00
2022-08-21T03:50:29.498Z,13.06
2022-08-21T03:52:57.102Z,13.06
2022-08-21T03:55:25.267Z,13.09
2022-08-21T03:57:52.504Z,13.06
2022-08-21T04:00:20.511Z,12.99
2022-08-21T04:02:47.954Z,13.01
2022-08-21T04:05:28.239Z,13.08
2022-08-21T04:07:57.424Z,13.12
2022-08-21T04:10:25.823Z,12.97
2022-08-21T04:12:54.015Z,13.19
2022-08-21T04:15:22.210Z,13.09
2022-08-21T04:17:49.439Z,13.15
2022-08-21T04:20:19.036Z,13.11
2022-08-21T04:22:46.826Z,13.13
2022-08-21T04:25:15.496Z,13.26
2022-08-21T04:27:43.070Z,13.11
2022-08-21T04:30:10.932Z,13.07
2022-08-21T04:32:38.922Z,12.93
2022-08-21T04:35:09.346Z,12.96
2022-08-21T04:37:41.496Z,13.01
2022-08-21T04:40:11.102Z,12.96
2022-08-21T04:42:50.660Z,13.04
2022-08-21T04:45:23.244Z,12.96
2022-08-21T04:47:53.292Z,12.90
2022-08-21T04:50:23.368Z,12.90
2022-08-21T04:52:49.994Z,12.74
2022-08-21T04:55:19.654Z,12.92
2022-08-21T04:57:49.104Z,12.83
2022-08-21T05:00:19.868Z,12.82
2022-08-21T05:02:51.030Z,12.80
2022-08-21T05:05:18.180Z,12.82
2022-08-21T05:07:46.361Z,12.84
2022-08-21T05:10:14.891Z,12.93
2022-08-21T05:12:43.641Z,12.85
2022-08-21T05:15:13.422Z,12.85
2022-08-21T05:17:41.824Z,12.90
2022-08-21T05:20:09.928Z,12.97
2022-08-21T05:22:36.556Z,13.06
2022-08-21T05:25:03.814Z,13.03
2022-08-21T05:27:37.077Z,13.02
2022-08-21T05:30:08.629Z,12.98
2022-08-21T05:32:36.758Z,13.16
2022-08-21T05:35:06.699Z,13.27
2022-08-21T05:37:34.141Z,13.19
2022-08-21T05:40:05.032Z,13.30
2022-08-21T05:42:54.359Z,13.35
2022-08-21T05:45:41.943Z,13.44
2022-08-21T05:48:13.545Z,13.48
2022-08-21T05:50:40.238Z,13.62
2022-08-21T05:53:08.101Z,13.79
2022-08-21T05:55:36.449Z,13.84
2022-08-21T05:58:03.070Z,13.99
2022-08-21T06:00:29.975Z,14.06
2022-08-21T06:02:56.812Z,14.17
2022-08-21T06:05:36.818Z,14.27
2022-08-21T06:08:04.910Z,14.52
2022-08-21T06:10:32.237Z,14.69
2022-08-21T06:12:59.063Z,14.89
2022-08-21T06:15:25.914Z,15.13
2022-08-21T06:17:54.224Z,15.32
2022-08-21T06:20:21.346Z,15.49
2022-08-21T06:22:48.467Z,15.65
2022-08-21T06:25:15.177Z,15.80
2022-08-21T06:27:41.883Z,15.91
2022-08-21T06:30:09.185Z,16.22
2022-08-21T06:32:36.676Z,16.34
2022-08-21T06:35:04.967Z,16.36
2022-08-21T06:37:32.316Z,16.66
2022-08-21T06:39:58.977Z,17.00
2022-08-21T06:42:28.786Z,16.91
2022-08-21T06:44:55.601Z,17.03
2022-08-21T06:47:22.246Z,16.73
2022-08-21T06:49:49.193Z,17.17
2022-08-21T06:52:16.532Z,17.18
2022-08-21T06:54:43.476Z,17.36
2022-08-21T06:57:10.105Z,17.66
2022-08-21T06:59:36.778Z,17.21
2022-08-21T07:02:04.073Z,17.61
2022-08-21T07:04:31.018Z,17.90
2022-08-21T07:06:57.670Z,18.30
2022-08-21T07:09:24.965Z,18.20
2022-08-21T07:11:54.809Z,17.83
2022-08-21T07:14:21.826Z,17.81
2022-08-21T07:16:50.109Z,17.80
2022-08-21T07:19:16.651Z,17.64
2022-08-21T07:21:43.282Z,17.60
2022-08-21T07:24:09.906Z,17.90
2022-08-21T07:26:37.191Z,17.91
2022-08-21T07:29:04.620Z,18.04
2022-08-21T07:31:31.754Z,18.09
2022-08-21T07:33:59.013Z,18.15
2022-08-21T07:36:26.470Z,18.48
2022-08-21T07:38:53.218Z,18.57
2022-08-21T07:41:29.550Z,18.36
2022-08-21T07:44:00.056Z,18.69
2022-08-21T07:46:27.347Z,19.03
2022-08-21T07:48:54.294Z,18.64
2022-08-21T07:51:25.046Z,18.83
2022-08-21T07:53:55.284Z,19.26
2022-08-21T07:56:22.467Z,19.40
2022-08-21T07:58:49.516Z,19.54
2022-08-21T08:01:16.530Z,19.42
2022-08-21T08:03:43.468Z,19.23
2022-08-21T08:06:13.261Z,19.35
2022-08-21T08:08:41.690Z,19.52
2022-08-21T08:11:16.084Z,19.91
2022-08-21T08:13:46.030Z,20.18
2022-08-21T08:16:12.921Z,20.00
2022-08-21T08:18:39.645Z,19.74
2022-08-21T08:21:06.833Z,20.03
2022-08-21T08:23:33.937Z,19.48
2022-08-21T08:26:01.279Z,19.62
2022-08-21T08:28:28.258Z,19.70
2022-08-21T08:30:55.063Z,19.73
2022-08-21T08:33:22.141Z,20.45
2022-08-21T08:35:51.058Z,19.97
2022-08-21T08:38:22.886Z,20.04
2022-08-21T08:41:09.509Z,20.62
2022-08-21T08:43:36.670Z,20.35
2022-08-21T08:46:07.122Z,20.09
2022-08-21T08:49:03.648Z,20.68
2022-08-21T08:51:47.468Z,20.63
2022-08-21T08:54:34.562Z,20.67
2022-08-21T08:57:02.778Z,20.60
2022-08-21T08:59:40.836Z,21.16
2022-08-21T09:02:10.781Z,20.51
2022-08-21T09:04:37.365Z,20.92
2022-08-21T09:07:21.405Z,20.90
2022-08-21T09:10:24.318Z,21.17
2022-08-21T09:13:37.908Z,21.16
2022-08-21T09:16:30.852Z,21.59
2022-08-21T09:19:24.890Z,22.26
2022-08-21T09:22:21.216Z,21.84
2022-08-21T09:25:09.070Z,22.22
2022-08-21T09:27:37.293Z,22.53
2022-08-21T09:30:06.390Z,22.84
2022-08-21T09:32:37.085Z,22.26
2022-08-21T09:35:08.245Z,22.33
2022-08-21T09:37:47.182Z,21.90
2022-08-21T09:40:41.349Z,21.43
2022-08-21T09:43:22.704Z,22.03
2022-08-21T09:46:01.658Z,22.22
2022-08-21T09:48:29.958Z,21.92
2022-08-21T09:51:23.767Z,22.21
2022-08-21T09:53:55.857Z,21.49
2022-08-21T09:57:21.622Z,21.23
2022-08-21T09:59:49.083Z,21.34
2022-08-21T10:02:32.308Z,21.68
2022-08-21T10:05:10.130Z,21.47
2022-08-21T10:07:39.207Z,21.52
2022-08-21T10:10:10.664Z,21.96
2022-08-21T10:13:12.404Z,22.01
2022-08-21T10:16:16.005Z,21.73
2022-08-21T10:19:07.430Z,21.90
2022-08-21T10:21:45.904Z,20.91
2022-08-21T10:24:30.466Z,21.10
2022-08-21T10:27:04.064Z,21.10
2022-08-21T10:29:49.461Z,21.73
2022-08-21T10:32:43.644Z,21.74
2022-08-21T10:35:15.108Z,21.33
2022-08-21T10:37:58.540Z,21.18
2022-08-21T10:40:39.943Z,21.22
2022-08-21T10:43:21.474Z,21.77
2022-08-21T10:46:12.991Z,21.15
2022-08-21T10:48:50.464Z,21.71
2022-08-21T10:52:03.129Z,21.64
2022-08-21T10:54:46.266Z,21.50
2022-08-21T10:57:29.793Z,21.60
2022-08-21T11:00:07.814Z,22.12
2022-08-21T11:02:41.591Z,22.60
2022-08-21T11:05:14.833Z,22.56
2022-08-21T11:08:01.382Z,22.52
2022-08-21T11:10:51.166Z,21.42
2022-08-21T11:13:46.260Z,22.08
2022-08-21T11:16:29.747Z,22.00
2022-08-21T11:19:36.104Z,21.97
2022-08-21T11:22:09.709Z,21.88
2022-08-21T11:24:46.006Z,22.02
2022-08-21T11:27:48.065Z,22.22
2022-08-21T11:30:15.010Z,21.77
2022-08-21T11:33:00.352Z,22.31
2022-08-21T11:35:37.783Z,22.35
2022-08-21T11:38:21.875Z,22.57
2022-08-21T11:41:12.218Z,22.40
2022-08-21T11:44:14.998Z,22.48
2022-08-21T11:46:49.195Z,22.55
2022-08-21T11:49:31.661Z,22.30
2022-08-21T11:52:16.920Z,22.71
2022-08-21T11:54:52.238Z,22.57
2022-08-21T11:57:28.341Z,22.87
2022-08-21T12:00:27.418Z,22.93
2022-08-21T12:03:06.213Z,22.27
2022-08-21T12:05:37.220Z,22.01
2022-08-21T12:08:08.222Z,22.56
2022-08-21T12:10:41.571Z,23.05
2022-08-21T12:13:12.463Z,23.11
2022-08-21T12:15:39.226Z,22.69
2022-08-21T12:18:21.185Z,23.07
2022-08-21T12:21:28.136Z,23.05
2022-08-21T12:24:18.951Z,23.89
2022-08-21T12:26:57.729Z,23.92
2022-08-21T12:29:31.094Z,23.04
2022-08-21T12:32:16.081Z,22.92
2022-08-21T12:34:55.727Z,23.01
2022-08-21T12:37:37.403Z,23.80
2022-08-21T12:40:10.791Z,23.17
2022-08-21T12:42:52.924Z,23.37
2022-08-21T12:45:35.638Z,23.84
2022-08-21T12:48:15.649Z,23.27
2022-08-21T12:50:50.598Z,23.40
2022-08-21T12:53:26.096Z,23.52
2022-08-21T12:55:53.093Z,22.99
2022-08-21T12:58:25.063Z,22.98
2022-08-21T13:00:55.075Z,22.69
2022-08-21T13:03:23.923Z,23.03
2022-08-21T13:05:52.860Z,23.02
2022-08-21T13:08:21.826Z,22.65
2022-08-21T13:10:57.155Z,23.22
2022-08-21T13:13:28.701Z,23.87
2022-08-21T13:16:07.447Z,23.98
2022-08-21T13:18:40.376Z,23.26
2022-08-21T13:21:15.886Z,23.44
2022-08-21T13:23:42.532Z,24.36
2022-08-21T13:26:21.332Z,24.21
2022-08-21T13:28:50.452Z,23.68
2022-08-21T13:31:25.893Z,24.39
2022-08-21T13:33:54.637Z,23.97
2022-08-21T13:36:32.678Z,24.43
2022-08-21T13:39:00.475Z,24.78
2022-08-21T13:41:34.857Z,24.09
2022-08-21T13:44:18.328Z,22.84
2022-08-21T13:46:48.070Z,22.96
2022-08-21T13:49:17.796Z,23.23
2022-08-21T13:51:45.787Z,23.52
2022-08-21T13:54:23.144Z,22.79
2022-08-21T13:56:49.716Z,22.64
2022-08-21T13:59:31.445Z,22.17
2022-08-21T14:02:24.976Z,22.20
2022-08-21T14:04:56.529Z,22.39
2022-08-21T14:07:37.335Z,22.24
2022-08-21T14:10:07.303Z,22.23
2022-08-21T14:12:58.324Z,22.86
2022-08-21T14:15:29.487Z,23.60
2022-08-21T14:18:09.546Z,23.39
2022-08-21T14:20:36.901Z,22.88
2022-08-21T14:23:03.904Z,23.87
2022-08-21T14:25:43.784Z,24.36
2022-08-21T14:28:28.109Z,23.29
2022-08-21T14:30:57.262Z,23.95
2022-08-21T14:33:33.647Z,24.12
2022-08-21T14:36:01.872Z,23.58
2022-08-21T14:38:29.794Z,22.85
2022-08-21T14:41:00.443Z,23.47
2022-08-21T14:43:28.923Z,23.40
2022-08-21T14:45:56.812Z,24.30
2022-08-21T14:48:23.575Z,24.16
2022-08-21T14:50:50.154Z,24.15
2022-08-21T14:53:17.287Z,23.51
2022-08-21T14:56:02.602Z,23.24
2022-08-21T14:58:29.211Z,24.16
2022-08-21T15:00:57.444Z,24.27
2022-08-21T15:03:24.675Z,23.70
2022-08-21T15:05:51.933Z,23.40
2022-08-21T15:08:19.700Z,22.98
2022-08-21T15:11:10.085Z,23.88
2022-08-21T15:13:34.188Z,23.68
2022-08-21T15:16:00.849Z,23.67
2022-08-21T15:18:29.529Z,23.27
2022-08-21T15:20:56.783Z,23.36
2022-08-21T15:23:23.785Z,22.54
2022-08-21T15:25:52.715Z,22.34
2022-08-21T15:28:19.793Z,22.13
2022-08-21T15:30:47.773Z,22.12
2022-08-21T15:33:14.438Z,22.42
2022-08-21T15:35:41.242Z,22.92
2022-08-21T15:38:07.908Z,23.02
2022-08-21T15:40:39.775Z,23.07
2022-08-21T15:43:30.112Z,22.65
2022-08-21T15:45:59.614Z,22.55
2022-08-21T15:48:26.590Z,22.64
2022-08-21T15:50:53.177Z,22.75
2022-08-21T15:53:19.719Z,22.75
2022-08-21T15:55:46.657Z,22.46
2022-08-21T15:58:16.340Z,21.89
2022-08-21T16:00:45.076Z,21.82
2022-08-21T16:03:18.026Z,21.92
2022-08-21T16:05:45.884Z,21.75
2022-08-21T16:08:12.842Z,21.62
2022-08-21T16:10:40.186Z,21.46
2022-08-21T16:13:13.780Z,21.45
2022-08-21T16:15:40.939Z,21.60
2022-08-21T16:18:07.555Z,21.66
2022-08-21T16:20:34.310Z,21.80
2022-08-21T16:23:01.130Z,21.69
2022-08-21T16:25:27.924Z,21.66
2022-08-21T16:28:00.277Z,21.69
2022-08-21T16:30:28.644Z,21.90
2022-08-21T16:32:55.790Z,21.67
2022-08-21T16:35:22.932Z,21.57
2022-08-21T16:37:53.000Z,21.54
2022-08-21T16:40:23.117Z,21.61
2022-08-21T16:42:50.523Z,21.34
2022-08-21T16:45:21.103Z,21.52
2022-08-21T16:47:47.992Z,21.71
2022-08-21T16:50:23.074Z,21.67
2022-08-21T16:52:50.904Z,21.52
2022-08-21T16:55:17.999Z,21.46
2022-08-21T16:57:44.745Z,21.47
2022-08-21T17:00:15.660Z,21.65
2022-08-21T17:02:47.694Z,21.36
2022-08-21T17:05:15.267Z,21.22
2022-08-21T17:07:44.076Z,21.24
2022-08-21T17:10:12.662Z,21.23
2022-08-21T17:12:41.116Z,21.36
2022-08-21T17:15:31.436Z,21.33
2022-08-21T17:17:58.428Z,21.20
2022-08-21T17:20:26.192Z,21.00
2022-08-21T17:22:52.789Z,21.06
2022-08-21T17:25:20.612Z,21.12
2022-08-21T17:27:49.309Z,20.79
2022-08-21T17:30:16.781Z,20.91
2022-08-21T17:32:45.966Z,21.06
2022-08-21T17:35:13.619Z,21.12
2022-08-21T17:37:41.070Z,21.10
2022-08-21T17:40:14.404Z,21.00
2022-08-21T17:42:43.372Z,21.08
2022-08-21T17:45:12.548Z,21.01
2022-08-21T17:47:39.654Z,21.18
2022-08-21T17:50:07.393Z,21.06
2022-08-21T17:52:35.141Z,21.21
2022-08-21T17:55:02.702Z,21.03
2022-08-21T17:57:32.807Z,20.99
2022-08-21T17:59:59.448Z,20.92
2022-08-21T18:02:26.786Z,20.96
2022-08-21T18:04:55.445Z,20.67
2022-08-21T18:07:32.273Z,20.56
2022-08-21T18:10:01.562Z,20.63
2022-08-21T18:12:29.727Z,20.87
2022-08-21T18:14:56.619Z,20.84
2022-08-21T18:17:24.506Z,20.93
2022-08-21T18:19:51.112Z,20.93
2022-08-21T18:22:18.088Z,20.61
2022-08-21T18:24:44.699Z,20.69
2022-08-21T18:27:13.456Z,20.76
2022-08-21T18:29:47.124Z,20.76
2022-08-21T18:32:30.352Z,20.60
2022-08-21T18:35:00.543Z,20.41
2022-08-21T18:37:27.399Z,20.24
2022-08-21T18:39:54.256Z,20.26
2022-08-21T18:42:21.512Z,20.30
2022-08-21T18:44:59.292Z,20.31
2022-08-21T18:47:37.144Z,20.52
2022-08-21T18:50:05.882Z,20.45
2022-08-21T18:52:37.729Z,20.41
2022-08-21T18:55:06.110Z,20.37
2022-08-21T18:57:41.162Z,20.24
2022-08-21T19:00:19.336Z,20.20
2022-08-21T19:02:45.991Z,20.38
2022-08-21T19:05:17.747Z,20.37
2022-08-21T19:07:44.982Z,20.25
2022-08-21T19:10:27.653Z,20.09
2022-08-21T19:12:57.242Z,19.89
2022-08-21T19:15:24.186Z,20.04
2022-08-21T19:17:52.802Z,20.19
2022-08-21T19:20:27.244Z,20.13
2022-08-21T19:22:56.325Z,20.20
2022-08-21T19:25:33.505Z,20.29
2022-08-21T19:28:18.323Z,20.13
2022-08-21T19:30:55.266Z,20.31
2022-08-21T19:33:29.534Z,20.02
2022-08-21T19:35:56.523Z,20.12
2022-08-21T19:38:23.836Z,20.25
2022-08-21T19:40:50.940Z,20.23
2022-08-21T19:43:22.431Z,20.06
2022-08-21T19:45:52.087Z,20.12
2022-08-21T19:48:19.120Z,19.80
2022-08-21T19:50:45.916Z,19.71
2022-08-21T19:53:12.600Z,19.73
2022-08-21T19:55:43.855Z,19.52
2022-08-21T19:58:23.818Z,19.46
2022-08-21T20:00:50.451Z,19.59
2022-08-21T20:03:17.884Z,19.73
2022-08-21T20:05:47.985Z,19.88
2022-08-21T20:08:20.485Z,19.76
2022-08-21T20:10:49.937Z,19.99
2022-08-21T20:13:21.567Z,19.91
2022-08-21T20:15:50.474Z,19.85
2022-08-21T20:18:18.701Z,19.87
2022-08-21T20:20:46.518Z,19.74
2022-08-21T20:23:15.724Z,19.75
2022-08-21T20:25:45.181Z,19.68
2022-08-21T20:28:13.529Z,19.70
2022-08-21T20:30:46.832Z,19.57
2022-08-21T20:33:14.382Z,19.55
2022-08-21T20:35:43.674Z,19.48
2022-08-21T20:38:10.269Z,19.63
2022-08-21T20:40:40.215Z,19.57
2022-08-21T20:43:07.907Z,19.40
2022-08-21T20:45:40.602Z,19.37
2022-08-21T20:48:14.229Z,19.28
2022-08-21T20:50:47.368Z,19.49
2022-08-21T20:53:26.203Z,19.43
2022-08-21T20:56:15.638Z,19.51
2022-08-21T20:58:51.002Z,19.64
2022-08-21T21:01:19.171Z,19.52
2022-08-21T21:03:51.758Z,19.47
2022-08-21T21:06:25.627Z,19.55
2022-08-21T21:08:57.582Z,19.44
2022-08-21T21:11:38.399Z,19.35
2022-08-21T21:14:16.516Z,19.49
2022-08-21T21:16:45.887Z,19.37
2022-08-21T21:19:42.842Z,19.33
2022-08-21T21:22:29.253Z,19.28
2022-08-21T21:25:13.060Z,19.36
2022-08-21T21:28:04.324Z,19.31
2022-08-21T21:30:36.100Z,19.30
2022-08-21T21:33:03.159Z,19.29
2022-08-21T21:35:36.580Z,19.32
2022-08-21T21:38:22.979Z,19.35
2022-08-21T21:41:22.698Z,19.21
2022-08-21T21:44:04.082Z,19.11
2022-08-21T21:46:30.593Z,18.92
2022-08-21T21:49:14.402Z,18.91
2022-08-21T21:51:51.619Z,18.76
2022-08-21T21:54:45.313Z,18.66
2022-08-21T21:57:45.107Z,18.77
2022-08-21T22:00:26.457Z,19.01
2022-08-21T22:03:13.300Z,19.10
2022-08-21T22:06:00.292Z,18.99
2022-08-21T22:08:48.822Z,19.00
2022-08-21T22:11:28.654Z,19.13
2022-08-21T22:14:11.602Z,18.92
2022-08-21T22:16:38.774Z,18.91
2022-08-21T22:19:24.371Z,18.98
2022-08-21T22:22:01.679Z,19.04
2022-08-21T22:24:38.654Z,18.97
2022-08-21T22:27:10.950Z,18.72
2022-08-21T22:29:59.123Z,18.65
2022-08-21T22:32:37.417Z,18.94
2022-08-21T22:35:19.260Z,19.12
2022-08-21T22:37:58.519Z,19.08
2022-08-21T22:40:35.581Z,18.97
2022-08-21T22:43:09.564Z,18.77
2022-08-21T22:45:57.506Z,18.45
2022-08-21T22:48:28.638Z,18.55
2022-08-21T22:51:12.998Z,18.64
2022-08-21T22:53:43.568Z,18.83
2022-08-21T22:56:26.592Z,18.80
2022-08-21T22:58:57.443Z,18.63
2022-08-21T23:01:23.923Z,18.61
2022-08-21T23:03:57.225Z,18.66
2022-08-21T23:06:42.983Z,18.63
2022-08-21T23:09:38.422Z,18.74
2022-08-21T23:12:33.162Z,18.85
2022-08-21T23:15:08.045Z,18.88
2022-08-21T23:17:49.811Z,18.89
2022-08-21T23:20:31.009Z,18.72
2022-08-21T23:23:22.913Z,18.63
2022-08-21T23:26:26.807Z,18.78
2022-08-21T23:29:08.267Z,18.90
2022-08-21T23:31:40.584Z,18.64
2022-08-21T23:34:19.603Z,18.56
2022-08-21T23:37:48.568Z,18.51
2022-08-21T23:40:51.042Z,18.42
2022-08-21T23:43:44.525Z,18.53
2022-08-21T23:46:16.879Z,18.57
2022-08-21T23:49:00.261Z,18.71
2022-08-21T23:51:38.990Z,18.69
2022-08-21T23:54:33.835Z,18.62
2022-08-21T23:57:08.965Z,18.74
2022-08-21T23:59:55.203Z,18.45
